createdAt,value
2023-05-08T00:01:10.527Z,98.75
2023-05-08T00:03:40.122Z,98.75
2023-05-08T00:06:10.155Z,98.88
2023-05-08T00:08:42.261Z,99.17
2023-05-08T00:11:11.631Z,98.96
2023-05-08T00:13:41.845Z,98.86
2023-05-08T00:16:12.015Z,99.07
2023-05-08T00:18:41.916Z,99.47
2023-05-08T00:21:11.315Z,100.00
2023-05-08T00:23:42.158Z,100.00
2023-05-08T00:26:11.639Z,100.00
2023-05-08T00:28:41.452Z,100.00
2023-05-08T00:31:10.998Z,100.00
2023-05-08T00:33:40.433Z,99.73
2023-05-08T00:36:10.418Z,100.00
2023-05-08T00:38:41.214Z,100.00
2023-05-08T00:41:10.679Z,100.00
2023-05-08T00:43:40.447Z,100.00
2023-05-08T00:49:45.276Z,100.00
2023-05-08T00:52:15.428Z,100.00
2023-05-08T00:54:45.287Z,100.00
2023-05-08T00:57:15.236Z,100.00
2023-05-08T00:59:47.455Z,100.00
2023-05-08T01:02:17.481Z,100.00
2023-05-08T01:04:49.975Z,100.00
2023-05-08T01:07:20.734Z,100.00
2023-05-08T01:09:50.902Z,99.97
2023-05-08T01:12:28.507Z,99.93
2023-05-08T01:15:17.194Z,99.89
2023-05-08T01:18:03.543Z,99.44
2023-05-08T01:20:48.120Z,99.40
2023-05-08T01:24:20.100Z,99.38
2023-05-08T01:27:37.122Z,98.75
2023-05-08T01:30:57.335Z,98.64
2023-05-08T01:33:37.414Z,98.55
2023-05-08T01:36:25.608Z,98.29
2023-05-08T01:39:06.105Z,98.20
2023-05-08T01:41:38.602Z,98.40
2023-05-08T01:44:17.327Z,98.59
2023-05-08T01:46:51.728Z,98.32
2023-05-08T01:49:29.368Z,98.57
2023-05-08T01:52:04.768Z,98.35
2023-05-08T01:54:52.093Z,98.62
2023-05-08T01:57:26.013Z,98.92
2023-05-08T01:59:59.794Z,99.00
2023-05-08T02:02:32.948Z,99.10
2023-05-08T02:05:07.031Z,99.46
2023-05-08T02:07:39.063Z,99.73
2023-05-08T02:10:11.071Z,99.67
2023-05-08T02:12:42.614Z,99.80
2023-05-08T02:15:14.981Z,100.00
2023-05-08T02:17:46.914Z,100.00
2023-05-08T02:20:19.121Z,100.00
2023-05-08T02:22:52.925Z,100.00
2023-05-08T02:25:22.968Z,100.00
2023-05-08T02:27:55.916Z,100.00
2023-05-08T02:30:27.713Z,100.00
2023-05-08T02:33:00.709Z,100.00
2023-05-08T02:35:33.543Z,100.00
2023-05-08T02:38:04.797Z,100.00
2023-05-08T02:40:35.268Z,100.00
2023-05-08T02:43:04.870Z,100.00
2023-05-08T02:45:41.848Z,100.00
2023-05-08T02:48:15.788Z,100.00
2023-05-08T02:50:56.744Z,100.00
2023-05-08T02:53:34.783Z,100.00
2023-05-08T02:56:12.450Z,100.00
2023-05-08T02:58:47.692Z,100.00
2023-05-08T03:01:26.365Z,100.00
2023-05-08T03:04:05.217Z,100.00
2023-05-08T03:06:43.505Z,100.00
2023-05-08T03:09:22.242Z,100.00
2023-05-08T03:11:59.178Z,100.00
2023-05-08T03:14:31.003Z,100.00
2023-05-08T03:17:02.933Z,100.00
2023-05-08T03:19:39.786Z,100.00
2023-05-08T03:22:12.796Z,100.00
2023-05-08T03:24:45.355Z,100.00
2023-05-08T03:27:16.229Z,100.00
2023-05-08T03:29:47.900Z,100.00
2023-05-08T03:32:18.801Z,100.00
2023-05-08T03:34:48.964Z,100.00
2023-05-08T03:37:20.554Z,100.00
2023-05-08T03:39:50.170Z,100.00
2023-05-08T03:42:22.635Z,100.00
2023-05-08T03:44:54.296Z,100.00
2023-05-08T03:50:44.902Z,100.00
2023-05-08T03:53:14.433Z,100.00
2023-05-08T03:55:43.969Z,100.00
2023-05-08T03:58:21.264Z,100.00
2023-05-08T04:01:03.723Z,100.00
2023-05-08T04:03:51.391Z,100.00
2023-05-08T04:06:42.057Z,100.00
2023-05-08T04:09:25.052Z,100.00
2023-05-08T04:12:04.072Z,100.00
2023-05-08T04:14:42.557Z,100.00
2023-05-08T04:17:16.229Z,100.00
2023-05-08T04:19:49.399Z,100.00
2023-05-08T04:22:23.653Z,100.00
2023-05-08T04:24:54.725Z,100.00
2023-05-08T04:27:24.608Z,100.00
2023-05-08T04:29:53.908Z,100.00
2023-05-08T04:32:24.374Z,100.00
2023-05-08T04:34:53.889Z,100.00
2023-05-08T04:37:31.572Z,100.00
2023-05-08T04:40:01.447Z,100.00
2023-05-08T04:42:36.839Z,100.00
2023-05-08T04:45:08.139Z,100.00
2023-05-08T04:47:37.923Z,100.00
2023-05-08T04:50:08.543Z,100.00
2023-05-08T04:52:39.665Z,99.69
2023-05-08T04:55:11.606Z,98.06
2023-05-08T04:57:41.367Z,96.42
2023-05-08T05:00:12.983Z,94.96
2023-05-08T05:02:42.487Z,93.57
2023-05-08T05:05:12.643Z,92.10
2023-05-08T05:07:43.844Z,91.37
2023-05-08T05:10:13.549Z,90.51
2023-05-08T05:12:43.184Z,89.58
2023-05-08T05:15:14.085Z,89.15
2023-05-08T05:17:43.951Z,87.11
2023-05-08T05:20:15.269Z,85.62
2023-05-08T05:22:46.155Z,84.46
2023-05-08T05:25:16.147Z,83.36
2023-05-08T05:27:45.698Z,82.55
2023-05-08T05:30:15.809Z,81.88
2023-05-08T05:32:45.294Z,81.39
2023-05-08T05:35:14.893Z,79.19
2023-05-08T05:37:45.998Z,77.90
2023-05-08T05:40:15.817Z,76.74
2023-05-08T05:42:51.354Z,76.67
2023-05-08T05:45:21.654Z,76.85
2023-05-08T05:47:54.413Z,76.55
2023-05-08T05:50:24.222Z,76.33
2023-05-08T05:52:55.315Z,74.78
2023-05-08T05:55:24.758Z,76.45
2023-05-08T05:57:54.267Z,75.11
2023-05-08T06:00:24.204Z,76.24
2023-05-08T06:02:53.915Z,76.07
2023-05-08T06:05:23.593Z,75.02
2023-05-08T06:07:54.457Z,74.76
2023-05-08T06:10:24.348Z,74.98
2023-05-08T06:12:53.850Z,73.78
2023-05-08T06:15:24.334Z,73.85
2023-05-08T06:17:54.674Z,73.93
2023-05-08T06:20:24.984Z,73.95
2023-05-08T06:22:57.442Z,74.10
2023-05-08T06:25:28.396Z,73.23
2023-05-08T06:27:58.036Z,70.20
2023-05-08T06:30:27.582Z,73.33
2023-05-08T06:32:57.527Z,73.59
2023-05-08T06:35:27.065Z,73.78
2023-05-08T06:37:58.006Z,73.78
2023-05-08T06:40:27.515Z,72.79
2023-05-08T06:42:57.116Z,72.17
2023-05-08T06:45:26.578Z,71.69
2023-05-08T06:50:44.521Z,71.71
2023-05-08T06:53:13.953Z,70.15
2023-05-08T06:55:45.637Z,70.48
2023-05-08T06:58:15.478Z,69.73
2023-05-08T07:00:46.363Z,68.50
2023-05-08T07:03:16.179Z,67.92
2023-05-08T07:05:47.203Z,67.99
2023-05-08T07:08:16.663Z,68.31
2023-05-08T07:10:46.562Z,69.18
2023-05-08T07:13:20.290Z,68.78
2023-05-08T07:15:49.918Z,69.05
2023-05-08T07:18:19.791Z,68.88
2023-05-08T07:20:50.816Z,68.64
2023-05-08T07:23:20.369Z,69.29
2023-05-08T07:25:49.926Z,68.79
2023-05-08T07:28:19.290Z,67.91
2023-05-08T07:30:48.815Z,68.40
2023-05-08T07:33:18.293Z,68.52
2023-05-08T07:35:49.676Z,69.28
2023-05-08T07:38:19.120Z,67.31
2023-05-08T07:40:49.370Z,68.57
2023-05-08T07:43:18.828Z,68.41
2023-05-08T07:45:48.542Z,67.87
2023-05-08T07:48:18.188Z,66.34
2023-05-08T07:50:47.673Z,66.90
2023-05-08T07:53:18.756Z,65.30
2023-05-08T07:55:48.204Z,64.67
2023-05-08T07:58:17.766Z,63.91
2023-05-08T08:00:47.206Z,65.10
2023-05-08T08:03:17.688Z,64.92
2023-05-08T08:05:48.014Z,64.48
2023-05-08T08:08:18.897Z,63.77
2023-05-08T08:10:48.350Z,65.46
2023-05-08T08:13:19.217Z,65.97
2023-05-08T08:15:48.589Z,65.28
2023-05-08T08:18:18.198Z,63.77
2023-05-08T08:20:47.688Z,63.22
2023-05-08T08:23:18.583Z,63.80
2023-05-08T08:25:48.045Z,63.37
2023-05-08T08:28:18.255Z,62.25
2023-05-08T08:30:47.856Z,62.20
2023-05-08T08:33:19.103Z,61.98
2023-05-08T08:35:48.765Z,61.79
2023-05-08T08:38:19.686Z,62.58
2023-05-08T08:40:49.101Z,63.48
2023-05-08T08:43:18.627Z,63.87
2023-05-08T08:45:48.680Z,61.63
2023-05-08T08:48:19.283Z,60.59
2023-05-08T08:50:53.533Z,62.83
2023-05-08T08:53:32.492Z,62.38
2023-05-08T08:56:04.607Z,62.58
2023-05-08T08:58:40.026Z,61.20
2023-05-08T09:01:12.117Z,61.97
2023-05-08T09:03:43.115Z,62.02
2023-05-08T09:06:12.964Z,62.06
2023-05-08T09:08:44.146Z,60.57
2023-05-08T09:11:13.733Z,58.69
2023-05-08T09:13:43.259Z,61.52
2023-05-08T09:16:12.657Z,60.95
2023-05-08T09:18:42.387Z,60.87
2023-05-08T09:21:11.930Z,61.26
2023-05-08T09:23:58.218Z,60.24
2023-05-08T09:26:36.329Z,57.27
2023-05-08T09:29:14.325Z,62.24
2023-05-08T09:31:46.124Z,61.57
2023-05-08T09:34:28.619Z,60.48
2023-05-08T09:36:58.844Z,60.52
2023-05-08T09:39:30.796Z,61.18
2023-05-08T09:42:01.300Z,61.04
2023-05-08T09:44:31.063Z,60.57
2023-05-08T09:50:44.874Z,59.64
2023-05-08T09:53:14.332Z,59.26
2023-05-08T09:55:51.047Z,59.78
2023-05-08T09:58:20.561Z,58.73
2023-05-08T10:00:50.260Z,59.48
2023-05-08T10:03:20.109Z,59.51
2023-05-08T10:05:51.036Z,59.31
2023-05-08T10:08:23.400Z,56.15
2023-05-08T10:10:53.569Z,59.88
2023-05-08T10:13:23.179Z,58.65
2023-05-08T10:15:57.067Z,58.65
2023-05-08T10:18:30.596Z,57.55
2023-05-08T10:21:06.866Z,58.20
2023-05-08T10:23:37.058Z,58.89
2023-05-08T10:26:14.627Z,58.88
2023-05-08T10:28:50.425Z,58.88
2023-05-08T10:31:20.925Z,58.37
2023-05-08T10:33:54.417Z,57.70
2023-05-08T10:36:28.063Z,57.12
2023-05-08T10:39:00.816Z,57.64
2023-05-08T10:41:31.484Z,58.33
2023-05-08T10:44:03.572Z,59.79
2023-05-08T10:46:39.576Z,57.25
2023-05-08T10:49:18.403Z,57.99
2023-05-08T10:52:08.442Z,56.98
2023-05-08T10:55:04.800Z,57.61
2023-05-08T10:57:34.547Z,58.16
2023-05-08T11:00:04.287Z,59.00
2023-05-08T11:02:37.283Z,59.24
2023-05-08T11:05:20.720Z,58.71
2023-05-08T11:07:59.389Z,59.38
2023-05-08T11:10:33.551Z,60.21
2023-05-08T11:13:04.299Z,60.41
2023-05-08T11:15:41.300Z,60.29
2023-05-08T11:18:12.507Z,61.36
2023-05-08T11:20:43.717Z,62.05
2023-05-08T11:23:29.761Z,61.72
2023-05-08T11:26:04.012Z,61.83
2023-05-08T11:28:36.105Z,61.50
2023-05-08T11:31:06.700Z,62.26
2023-05-08T11:33:38.309Z,62.18
2023-05-08T11:36:19.488Z,61.67
2023-05-08T11:39:12.867Z,61.11
2023-05-08T11:41:42.443Z,60.81
2023-05-08T11:44:22.620Z,61.35
2023-05-08T11:46:54.876Z,62.12
2023-05-08T11:49:29.590Z,62.29
2023-05-08T11:52:01.772Z,61.90
2023-05-08T11:54:33.794Z,61.95
2023-05-08T11:57:03.325Z,61.56
2023-05-08T11:59:38.361Z,60.95
2023-05-08T12:02:09.509Z,60.38
2023-05-08T12:04:49.181Z,61.08
2023-05-08T12:07:18.979Z,61.39
2023-05-08T12:09:50.449Z,60.92
2023-05-08T12:12:19.904Z,61.31
2023-05-08T12:14:52.502Z,60.18
2023-05-08T12:17:22.271Z,60.00
2023-05-08T12:20:04.385Z,60.19
2023-05-08T12:22:34.091Z,60.40
2023-05-08T12:25:06.623Z,62.22
2023-05-08T12:27:36.308Z,63.76
2023-05-08T12:30:10.587Z,63.89
2023-05-08T12:32:42.182Z,65.05
2023-05-08T12:35:14.689Z,66.10
2023-05-08T12:37:44.383Z,68.13
2023-05-08T12:40:29.196Z,73.11
2023-05-08T12:42:59.151Z,75.30
2023-05-08T12:45:31.087Z,78.07
2023-05-08T12:50:47.287Z,80.80
2023-05-08T12:53:18.540Z,83.14
2023-05-08T12:55:55.724Z,84.91
2023-05-08T12:58:29.124Z,85.36
2023-05-08T13:01:13.538Z,87.15
2023-05-08T13:03:44.760Z,86.90
2023-05-08T13:06:25.051Z,82.87
2023-05-08T13:08:56.881Z,81.39
2023-05-08T13:11:35.616Z,77.52
2023-05-08T13:14:05.124Z,78.57
2023-05-08T13:16:45.203Z,79.64
2023-05-08T13:19:15.899Z,80.54
2023-05-08T13:21:48.172Z,79.65
2023-05-08T13:24:17.611Z,80.97
2023-05-08T13:26:47.588Z,81.03
2023-05-08T13:29:17.512Z,82.24
2023-05-08T13:31:46.984Z,82.66
2023-05-08T13:34:16.542Z,81.96
2023-05-08T13:36:47.568Z,83.44
2023-05-08T13:39:17.032Z,83.19
2023-05-08T13:41:46.471Z,83.72
2023-05-08T13:44:15.840Z,84.62
2023-05-08T13:46:45.492Z,84.71
2023-05-08T13:49:14.916Z,82.11
2023-05-08T13:51:47.244Z,81.71
2023-05-08T13:54:19.027Z,81.59
2023-05-08T13:56:50.077Z,81.38
2023-05-08T13:59:19.681Z,80.37
2023-05-08T14:01:49.166Z,79.05
2023-05-08T14:04:19.447Z,77.77
2023-05-08T14:06:51.454Z,77.74
2023-05-08T14:09:21.114Z,77.58
2023-05-08T14:11:50.507Z,78.28
2023-05-08T14:14:19.993Z,78.11
2023-05-08T14:16:51.247Z,78.12
2023-05-08T14:19:20.832Z,80.28
2023-05-08T14:21:51.759Z,79.93
2023-05-08T14:24:21.216Z,77.90
2023-05-08T14:26:50.708Z,79.17
2023-05-08T14:29:21.650Z,79.56
2023-05-08T14:31:51.312Z,79.58
2023-05-08T14:34:20.793Z,78.89
2023-05-08T14:36:51.651Z,78.11
2023-05-08T14:39:21.168Z,77.89
2023-05-08T14:42:14.319Z,76.97
2023-05-08T14:44:40.384Z,78.86
2023-05-08T14:47:09.867Z,78.60
2023-05-08T14:49:39.542Z,77.76
2023-05-08T14:52:10.444Z,77.00
2023-05-08T14:54:40.041Z,75.88
2023-05-08T14:57:09.641Z,76.87
2023-05-08T14:59:49.011Z,76.37
2023-05-08T15:02:22.058Z,76.49
2023-05-08T15:04:51.798Z,77.36
2023-05-08T15:07:22.729Z,77.12
2023-05-08T15:09:53.383Z,77.25
2023-05-08T15:12:22.857Z,77.13
2023-05-08T15:14:52.465Z,77.20
2023-05-08T15:17:22.058Z,78.52
2023-05-08T15:19:51.515Z,79.46
2023-05-08T15:22:22.594Z,79.35
2023-05-08T15:24:52.116Z,79.03
2023-05-08T15:27:21.896Z,78.36
2023-05-08T15:29:51.996Z,78.96
2023-05-08T15:32:21.534Z,78.79
2023-05-08T15:34:51.094Z,78.88
2023-05-08T15:37:22.028Z,78.59
2023-05-08T15:39:51.731Z,78.34
2023-05-08T15:42:22.046Z,78.15
2023-05-08T15:44:55.020Z,78.64
2023-05-08T15:50:44.080Z,82.09
2023-05-08T15:53:14.326Z,84.24
2023-05-08T15:55:43.802Z,86.93
2023-05-08T15:58:13.284Z,87.66
2023-05-08T16:00:45.203Z,88.64
2023-05-08T16:03:15.023Z,89.06
2023-05-08T16:05:46.341Z,90.48
2023-05-08T16:08:16.048Z,92.07
2023-05-08T16:10:45.507Z,91.78
2023-05-08T16:13:15.005Z,94.91
2023-05-08T16:15:44.521Z,96.71
2023-05-08T16:18:14.105Z,97.52
2023-05-08T16:20:45.356Z,99.41
2023-05-08T16:23:15.346Z,99.68
2023-05-08T16:25:44.951Z,100.00
2023-05-08T16:28:14.602Z,100.00
2023-05-08T16:30:44.283Z,100.00
2023-05-08T16:33:13.951Z,100.00
2023-05-08T16:35:45.107Z,100.00
2023-05-08T16:38:14.864Z,100.00
2023-05-08T16:40:45.321Z,100.00
2023-05-08T16:43:15.005Z,100.00
2023-05-08T16:45:44.641Z,100.00
2023-05-08T16:48:14.268Z,100.00
2023-05-08T16:50:45.297Z,100.00
2023-05-08T16:53:15.896Z,100.00
2023-05-08T16:55:45.545Z,100.00
2023-05-08T16:58:16.157Z,100.00
2023-05-08T17:00:46.193Z,100.00
2023-05-08T17:03:15.916Z,100.00
2023-05-08T17:05:46.961Z,100.00
2023-05-08T17:08:16.515Z,100.00
2023-05-08T17:10:45.997Z,100.00
2023-05-08T17:13:15.630Z,100.00
2023-05-08T17:15:45.482Z,100.00
2023-05-08T17:18:15.184Z,100.00
2023-05-08T17:20:46.075Z,100.00
2023-05-08T17:23:15.586Z,100.00
2023-05-08T17:25:45.092Z,100.00
2023-05-08T17:28:14.699Z,100.00
2023-05-08T17:30:45.830Z,100.00
2023-05-08T17:33:15.913Z,100.00
2023-05-08T17:35:46.835Z,100.00
2023-05-08T17:38:16.304Z,100.00
2023-05-08T17:40:45.926Z,100.00
2023-05-08T17:43:15.518Z,100.00
2023-05-08T17:45:45.757Z,100.00
2023-05-08T17:48:15.334Z,100.00
2023-05-08T17:50:47.567Z,100.00
2023-05-08T17:53:17.067Z,100.00
2023-05-08T17:55:46.459Z,100.00
2023-05-08T17:58:16.072Z,100.00
2023-05-08T18:00:45.457Z,100.00
2023-05-08T18:03:15.186Z,100.00
2023-05-08T18:05:46.085Z,100.00
2023-05-08T18:08:15.688Z,100.00
2023-05-08T18:10:45.428Z,100.00
2023-05-08T18:13:16.027Z,100.00
2023-05-08T18:15:45.596Z,100.00
2023-05-08T18:18:15.938Z,100.00
2023-05-08T18:20:46.677Z,100.00
2023-05-08T18:23:16.337Z,100.00
2023-05-08T18:25:45.889Z,100.00
2023-05-08T18:28:17.134Z,100.00
2023-05-08T18:30:46.700Z,100.00
2023-05-08T18:33:16.377Z,100.00
2023-05-08T18:35:47.477Z,100.00
2023-05-08T18:38:18.104Z,100.00
2023-05-08T18:40:47.729Z,100.00
2023-05-08T18:43:17.232Z,100.00
2023-05-08T18:45:46.837Z,100.00
2023-05-08T18:50:43.920Z,100.00
2023-05-08T18:53:14.780Z,100.00
2023-05-08T18:55:44.248Z,100.00
2023-05-08T18:58:15.090Z,100.00
2023-05-08T19:00:44.605Z,100.00
2023-05-08T19:03:14.178Z,100.00
2023-05-08T19:05:45.394Z,100.00
2023-05-08T19:08:16.216Z,100.00
2023-05-08T19:10:45.836Z,100.00
2023-05-08T19:13:15.363Z,100.00
2023-05-08T19:15:44.976Z,100.00
2023-05-08T19:18:15.088Z,100.00
2023-05-08T19:20:46.017Z,100.00
2023-05-08T19:23:17.581Z,100.00
2023-05-08T19:25:48.160Z,100.00
2023-05-08T19:28:17.752Z,100.00
2023-05-08T19:30:47.346Z,100.00
2023-05-08T19:33:20.769Z,100.00
2023-05-08T19:35:52.085Z,100.00
2023-05-08T19:38:21.592Z,100.00
2023-05-08T19:40:57.274Z,100.00
2023-05-08T19:43:28.056Z,100.00
2023-05-08T19:45:58.165Z,100.00
2023-05-08T19:48:27.690Z,100.00
2023-05-08T19:50:58.632Z,100.00
2023-05-08T19:53:28.313Z,100.00
2023-05-08T19:55:57.750Z,100.00
2023-05-08T19:58:27.285Z,100.00
2023-05-08T20:00:56.707Z,100.00
2023-05-08T20:03:26.229Z,100.00
2023-05-08T20:05:57.572Z,100.00
2023-05-08T20:08:27.189Z,100.00
2023-05-08T20:10:56.586Z,100.00
2023-05-08T20:13:26.234Z,100.00
2023-05-08T20:15:55.964Z,100.00
2023-05-08T20:18:25.543Z,100.00
2023-05-08T20:20:55.102Z,100.00
2023-05-08T20:23:26.206Z,100.00
2023-05-08T20:25:55.691Z,100.00
2023-05-08T20:28:26.344Z,100.00
2023-05-08T20:30:55.837Z,100.00
2023-05-08T20:33:25.385Z,100.00
2023-05-08T20:35:55.506Z,100.00
2023-05-08T20:38:26.376Z,100.00
2023-05-08T20:41:00.209Z,100.00
2023-05-08T20:43:30.498Z,100.00
2023-05-08T20:45:59.995Z,100.00
2023-05-08T20:48:29.618Z,100.00
2023-05-08T20:50:59.005Z,100.00
2023-05-08T20:53:29.762Z,100.00
2023-05-08T20:56:03.069Z,100.00
2023-05-08T20:58:32.596Z,100.00
2023-05-08T21:01:02.173Z,100.00
2023-05-08T21:03:31.598Z,100.00
2023-05-08T21:06:01.126Z,100.00
2023-05-08T21:08:32.184Z,100.00
2023-05-08T21:11:03.982Z,100.00
2023-05-08T21:13:33.481Z,100.00
2023-05-08T21:16:02.913Z,100.00
2023-05-08T21:18:32.402Z,100.00
2023-05-08T21:21:01.866Z,100.00
2023-05-08T21:23:32.905Z,100.00
2023-05-08T21:26:02.807Z,100.00
2023-05-08T21:28:32.338Z,100.00
2023-05-08T21:31:01.762Z,100.00
2023-05-08T21:33:31.361Z,100.00
2023-05-08T21:36:01.859Z,100.00
2023-05-08T21:38:32.780Z,100.00
2023-05-08T21:41:08.735Z,100.00
2023-05-08T21:43:38.997Z,100.00
2023-05-08T21:46:09.566Z,100.00
2023-05-08T21:50:43.688Z,100.00
2023-05-08T21:53:13.270Z,100.00
2023-05-08T21:55:42.745Z,100.00
2023-05-08T21:58:12.304Z,100.00
2023-05-08T22:00:42.286Z,100.00
2023-05-08T22:03:11.798Z,100.00
2023-05-08T22:05:42.747Z,100.00
2023-05-08T22:08:12.265Z,100.00
2023-05-08T22:10:44.402Z,100.00
2023-05-08T22:13:14.920Z,100.00
2023-05-08T22:15:45.207Z,100.00
2023-05-08T22:18:14.867Z,100.00
2023-05-08T22:20:46.048Z,100.00
2023-05-08T22:23:15.529Z,100.00
2023-05-08T22:25:45.289Z,100.00
2023-05-08T22:28:14.797Z,100.00
2023-05-08T22:30:44.306Z,100.00
2023-05-08T22:33:13.858Z,100.00
2023-05-08T22:35:44.762Z,100.00
2023-05-08T22:38:14.340Z,100.00
2023-05-08T22:40:44.136Z,100.00
2023-05-08T22:43:13.735Z,100.00
2023-05-08T22:45:43.413Z,100.00
2023-05-08T22:48:12.950Z,100.00
2023-05-08T22:50:42.560Z,100.00
2023-05-08T22:53:13.461Z,100.00
2023-05-08T22:55:42.945Z,100.00
2023-05-08T22:58:12.384Z,100.00
2023-05-08T23:00:42.932Z,100.00
2023-05-08T23:03:12.405Z,100.00
2023-05-08T23:05:41.967Z,100.00
2023-05-08T23:08:12.854Z,100.00
2023-05-08T23:10:42.630Z,100.00
2023-05-08T23:13:12.271Z,100.00
2023-05-08T23:15:41.996Z,100.00
2023-05-08T23:18:11.561Z,100.00
2023-05-08T23:20:40.977Z,100.00
2023-05-08T23:23:11.902Z,100.00
2023-05-08T23:25:41.266Z,100.00
2023-05-08T23:28:10.700Z,100.00
2023-05-08T23:30:40.107Z,100.00
2023-05-08T23:33:09.758Z,100.00
2023-05-08T23:35:39.279Z,100.00
2023-05-08T23:38:08.817Z,100.00
2023-05-08T23:40:39.624Z,100.00
2023-05-08T23:43:09.196Z,100.00
2023-05-08T23:45:38.788Z,100.00
2023-05-08T23:48:08.742Z,100.00
2023-05-08T23:50:38.262Z,100.00
2023-05-08T23:53:07.724Z,100.00
2023-05-08T23:55:39.611Z,100.00
2023-05-08T23:58:09.068Z,100.00
